Time;durP1;ratioP1;P1;durP2;ratioP2;P2;SDS_P1;SDS_P2;PMS_P1;PMS_P2;Temp;Humidity;BMP_temperature;BMP_pressure;BME280_temperature;BME280_humidity;BME280_pressure;Samples;Min_cycle;Max_cycle;Signal;HPM_P1;HPM_P2
2023/10/03 05:38:11;;;;;;;3.50;2.80;;;;;;;;;;5620793;23;20149;-71
2023/10/03 05:40:37;;;;;;;5.53;3.17;;;;;;;;;;4970693;28;20129;-69
2023/10/03 05:43:04;;;;;;;4.15;2.88;;;;;;;;;;4955291;29;20027;-69
2023/10/03 05:45:30;;;;;;;4.95;2.95;;;;;;;;;;4964327;28;20109;-69
2023/10/03 05:47:55;;;;;;;6.72;3.13;;;;;;;;;;4974811;28;20097;-71
2023/10/03 05:50:22;;;;;;;6.38;3.35;;;;;;;;;;4963775;28;20051;-70
2023/10/03 05:52:48;;;;;;;5.28;3.40;;;;;;;;;;4963469;28;20027;-71
2023/10/03 05:55:14;;;;;;;4.00;2.95;;;;;;;;;;4961254;28;20023;-70
2023/10/03 05:57:42;;;;;;;5.30;3.22;;;;;;;;;;4938288;29;20061;-70
2023/10/03 06:00:09;;;;;;;3.70;2.83;;;;;;;;;;4955363;29;20037;-71
2023/10/03 06:02:39;;;;;;;4.80;3.20;;;;;;;;;;4955719;29;20023;-72
2023/10/03 06:05:08;;;;;;;5.30;3.25;;;;;;;;;;4955596;29;20019;-71
2023/10/03 06:07:36;;;;;;;4.53;2.97;;;;;;;;;;4955314;29;20031;-71
2023/10/03 06:10:04;;;;;;;4.53;3.28;;;;;;;;;;4954772;28;20106;-71
2023/10/03 06:12:32;;;;;;;5.03;3.20;;;;;;;;;;4955229;28;20070;-69
2023/10/03 06:14:58;;;;;;;8.00;3.78;;;;;;;;;;4955196;29;20027;-68
2023/10/03 06:17:24;;;;;;;24.67;12.88;;;;;;;;;;4955017;29;20484;-71
2023/10/03 06:19:52;;;;;;;14.60;8.57;;;;;;;;;;4956203;29;20033;-75
2023/10/03 06:22:18;;;;;;;14.95;6.45;;;;;;;;;;4957809;28;20034;-77
2023/10/03 06:24:44;;;;;;;20.55;6.43;;;;;;;;;;4955026;28;20484;-75
2023/10/03 06:27:10;;;;;;;12.52;6.03;;;;;;;;;;4954770;29;20527;-76
2023/10/03 06:29:40;;;;;;;9.52;4.65;;;;;;;;;;4936940;29;20104;-76
2023/10/03 06:32:05;;;;;;;12.18;5.70;;;;;;;;;;4954712;29;20027;-76
2023/10/03 06:34:31;;;;;;;11.32;5.32;;;;;;;;;;4955628;28;20142;-75
2023/10/03 06:36:56;;;;;;;12.32;5.57;;;;;;;;;;4938931;28;20062;-75
2023/10/03 06:39:22;;;;;;;11.23;5.95;;;;;;;;;;4954946;28;20043;-75
2023/10/03 06:41:47;;;;;;;9.65;5.10;;;;;;;;;;4957383;29;20054;-76
2023/10/03 06:44:13;;;;;;;11.93;4.78;;;;;;;;;;4955764;28;20032;-76
2023/10/03 06:46:41;;;;;;;13.05;5.30;;;;;;;;;;4955173;28;20102;-77
2023/10/03 06:49:07;;;;;;;9.25;4.70;;;;;;;;;;4955158;29;20030;-77
2023/10/03 06:51:33;;;;;;;10.00;5.47;;;;;;;;;;4954723;28;20380;-76
2023/10/03 06:53:59;;;;;;;8.65;4.82;;;;;;;;;;4954905;29;20118;-75
2023/10/03 06:56:26;;;;;;;11.95;5.03;;;;;;;;;;4954691;28;20476;-76
2023/10/03 06:58:52;;;;;;;7.60;4.85;;;;;;;;;;4955615;28;20494;-76
2023/10/03 07:01:17;;;;;;;10.45;4.85;;;;;;;;;;4955567;28;20102;-77
2023/10/03 07:03:43;;;;;;;8.93;4.72;;;;;;;;;;4955031;29;20038;-75
2023/10/03 07:06:09;;;;;;;8.77;4.68;;;;;;;;;;4954850;29;20412;-74
2023/10/03 07:08:35;;;;;;;10.52;4.93;;;;;;;;;;4954587;29;20067;-75
2023/10/03 07:11:01;;;;;;;7.72;5.30;;;;;;;;;;4954601;28;20027;-75
2023/10/03 07:13:27;;;;;;;9.75;4.57;;;;;;;;;;4954780;28;20038;-79
2023/10/03 07:15:57;;;;;;;6.18;4.20;;;;;;;;;;4937663;29;20380;-76
2023/10/03 07:18:23;;;;;;;6.40;4.50;;;;;;;;;;4937296;29;20035;-75
2023/10/03 07:20:48;;;;;;;7.65;4.57;;;;;;;;;;4954494;29;20027;-76
2023/10/03 07:23:14;;;;;;;9.40;5.03;;;;;;;;;;4954228;28;20110;-75
2023/10/03 07:25:39;;;;;;;7.80;4.57;;;;;;;;;;4955204;28;20472;-75
2023/10/03 07:28:05;;;;;;;8.85;4.50;;;;;;;;;;4954467;28;20030;-75
2023/10/03 07:30:30;;;;;;;7.60;4.60;;;;;;;;;;4954855;28;20051;-75
2023/10/03 07:32:56;;;;;;;8.68;4.80;;;;;;;;;;4954415;29;20137;-76
2023/10/03 07:35:22;;;;;;;6.53;4.50;;;;;;;;;;4954769;29;20035;-75
2023/10/03 07:37:50;;;;;;;7.82;4.57;;;;;;;;;;4955038;28;20039;-76
2023/10/03 07:40:16;;;;;;;8.70;4.40;;;;;;;;;;4954904;28;20035;-77
2023/10/03 07:42:43;;;;;;;9.10;4.72;;;;;;;;;;4955467;28;20043;-76
2023/10/03 07:45:09;;;;;;;6.75;4.28;;;;;;;;;;4955863;29;20369;-76
2023/10/03 07:47:37;;;;;;;7.15;4.32;;;;;;;;;;4954490;29;20030;-77
2023/10/03 07:50:03;;;;;;;5.93;4.65;;;;;;;;;;4956738;28;20027;-76
2023/10/03 07:52:29;;;;;;;6.97;4.88;;;;;;;;;;4957760;28;20763;-76
2023/10/03 07:54:56;;;;;;;7.15;4.70;;;;;;;;;;4958752;28;20055;-76
2023/10/03 07:57:25;;;;;;;7.43;4.70;;;;;;;;;;4958972;28;20468;-75
2023/10/03 07:59:53;;;;;;;6.83;4.60;;;;;;;;;;4960075;28;20035;-76
2023/10/03 08:02:18;;;;;;;10.23;5.13;;;;;;;;;;4941405;29;20090;-78
2023/10/03 08:04:46;;;;;;;9.48;4.72;;;;;;;;;;4960504;28;20023;-77
2023/10/03 08:07:21;;;;;;;6.82;4.68;;;;;;;;;;4961795;29;20058;-76
2023/10/03 08:09:48;;;;;;;14.45;4.75;;;;;;;;;;4960934;29;20082;-77
2023/10/03 08:12:22;;;;;;;10.35;5.32;;;;;;;;;;4958790;29;20027;-76
2023/10/03 08:14:51;;;;;;;8.68;5.20;;;;;;;;;;4959400;29;20039;-71
2023/10/03 08:17:18;;;;;;;9.50;5.20;;;;;;;;;;4956960;29;20487;-72
2023/10/03 08:19:45;;;;;;;18.65;5.90;;;;;;;;;;4957160;29;20193;-71
2023/10/03 08:22:12;;;;;;;9.02;5.70;;;;;;;;;;4957088;28;20039;-67
2023/10/03 08:24:43;;;;;;;14.98;5.80;;;;;;;;;;4940319;29;20506;-68
2023/10/03 08:27:18;;;;;;;14.20;5.72;;;;;;;;;;4957719;29;20038;-74
2023/10/03 08:29:57;;;;;;;15.75;5.82;;;;;;;;;;4956654;29;20023;-67
2023/10/03 08:32:27;;;;;;;15.38;5.63;;;;;;;;;;4956977;29;20035;-66
2023/10/03 08:34:52;;;;;;;12.13;5.90;;;;;;;;;;4957945;29;20032;-70
2023/10/03 08:37:21;;;;;;;12.77;5.50;;;;;;;;;;4956881;29;20019;-68
2023/10/03 08:39:51;;;;;;;12.60;5.65;;;;;;;;;;4957089;29;20476;-67
2023/10/03 08:42:34;;;;;;;19.23;5.90;;;;;;;;;;4957033;29;20121;-70
2023/10/03 08:45:16;;;;;;;12.63;6.00;;;;;;;;;;4957185;29;20035;-72
2023/10/03 08:47:47;;;;;;;19.30;5.78;;;;;;;;;;4957298;29;20035;-72
2023/10/03 08:50:33;;;;;;;12.40;5.57;;;;;;;;;;4956879;29;20492;-71
2023/10/03 08:53:16;;;;;;;14.80;5.82;;;;;;;;;;4957094;29;20035;-71
2023/10/03 08:55:49;;;;;;;14.82;6.15;;;;;;;;;;4956873;29;20028;-70
2023/10/03 08:58:25;;;;;;;12.00;6.28;;;;;;;;;;4956469;29;20031;-70
2023/10/03 09:00:58;;;;;;;9.60;5.72;;;;;;;;;;4955921;28;20110;-70
2023/10/03 09:03:46;;;;;;;11.02;5.68;;;;;;;;;;4956678;29;20410;-70
2023/10/03 09:06:19;;;;;;;9.65;5.47;;;;;;;;;;4956387;29;20069;-71
2023/10/03 09:09:07;;;;;;;12.90;5.70;;;;;;;;;;4956198;29;20035;-70
2023/10/03 09:11:36;;;;;;;13.07;5.50;;;;;;;;;;4938417;29;20428;-70
2023/10/03 09:14:01;;;;;;;9.20;5.03;;;;;;;;;;4955072;29;20545;-70
2023/10/03 09:16:28;;;;;;;9.48;5.60;;;;;;;;;;4955295;29;20031;-71
2023/10/03 09:18:56;;;;;;;12.32;5.88;;;;;;;;;;4956177;29;20019;-71
2023/10/03 09:21:27;;;;;;;12.27;5.47;;;;;;;;;;4955480;28;20458;-70
2023/10/03 09:24:09;;;;;;;10.07;5.63;;;;;;;;;;4956251;29;20526;-70
2023/10/03 09:26:45;;;;;;;9.13;4.78;;;;;;;;;;4956904;29;20023;-71
2023/10/03 09:29:18;;;;;;;11.52;5.60;;;;;;;;;;4938577;29;20039;-71
2023/10/03 09:31:48;;;;;;;8.63;5.63;;;;;;;;;;4955531;29;20039;-71
2023/10/03 09:34:15;;;;;;;12.25;5.05;;;;;;;;;;4956000;29;20027;-70
2023/10/03 09:36:41;;;;;;;11.00;5.28;;;;;;;;;;4956421;29;20517;-71
2023/10/03 09:39:20;;;;;;;12.98;5.22;;;;;;;;;;4955662;28;20118;-71
2023/10/03 09:41:57;;;;;;;9.43;5.40;;;;;;;;;;4955867;29;20058;-71
2023/10/03 09:44:29;;;;;;;13.20;5.03;;;;;;;;;;4956188;29;20034;-69
2023/10/03 09:47:04;;;;;;;10.20;4.82;;;;;;;;;;4955572;29;20028;-70
2023/10/03 09:49:38;;;;;;;10.63;5.18;;;;;;;;;;4956433;29;20038;-71
2023/10/03 09:52:09;;;;;;;9.60;5.30;;;;;;;;;;4955834;29;20039;-70
2023/10/03 09:54:39;;;;;;;10.85;5.32;;;;;;;;;;4956101;28;20062;-71
2023/10/03 09:57:17;;;;;;;10.65;5.00;;;;;;;;;;4955748;29;20035;-70
2023/10/03 09:59:46;;;;;;;9.85;4.97;;;;;;;;;;4955025;29;20031;-69
2023/10/03 10:02:16;;;;;;;7.45;4.97;;;;;;;;;;4955400;28;20503;-70
2023/10/03 10:04:45;;;;;;;7.88;4.68;;;;;;;;;;4955181;29;20043;-71
2023/10/03 10:07:29;;;;;;;8.52;5.18;;;;;;;;;;4955276;29;20380;-70
2023/10/03 10:10:09;;;;;;;10.13;5.03;;;;;;;;;;4955213;29;20035;-70
2023/10/03 10:12:42;;;;;;;6.95;4.38;;;;;;;;;;4954377;28;20027;-69
2023/10/03 10:17:51;;;;;;;9.38;4.68;;;;;;;;;;4955149;29;20024;-70
2023/10/03 10:20:33;;;;;;;7.25;4.43;;;;;;;;;;4954825;29;20031;-72
2023/10/03 10:22:58;;;;;;;14.23;5.47;;;;;;;;;;4954917;29;20037;-71
2023/10/03 10:25:28;;;;;;;13.77;5.28;;;;;;;;;;4955177;29;20023;-70
2023/10/03 10:28:17;;;;;;;10.85;5.60;;;;;;;;;;4955238;29;20475;-70
2023/10/03 10:31:21;;;;;;;9.88;5.10;;;;;;;;;;4954599;29;20584;-70
2023/10/03 10:34:11;;;;;;;9.10;4.80;;;;;;;;;;4954808;29;20031;-68
2023/10/03 10:37:02;;;;;;;;;;;;;;;;;;4955130;28;20026;-71
2023/10/03 10:40:35;;;;;;;14.10;4.47;;;;;;;;;;4954496;28;19926;-72
2023/10/03 10:43:01;;;;;;;10.23;4.63;;;;;;;;;;4951538;29;20484;-71
2023/10/03 10:45:27;;;;;;;9.65;4.90;;;;;;;;;;4937215;29;20109;-73
2023/10/03 10:47:55;;;;;;;9.85;4.82;;;;;;;;;;4954640;29;20035;-71
2023/10/03 10:50:25;;;;;;;9.25;4.35;;;;;;;;;;4954286;29;20031;-72
2023/10/03 10:53:05;;;;;;;13.40;4.80;;;;;;;;;;4954356;29;20058;-71
2023/10/03 10:55:33;;;;;;;9.38;4.25;;;;;;;;;;4954822;29;20106;-70
2023/10/03 10:58:09;;;;;;;10.60;4.32;;;;;;;;;;4954695;29;20039;-70
2023/10/03 11:00:36;;;;;;;14.55;4.75;;;;;;;;;;4954323;29;20035;-71
2023/10/03 11:03:03;;;;;;;7.65;4.55;;;;;;;;;;4954442;29;20027;-71
2023/10/03 11:05:43;;;;;;;13.68;3.95;;;;;;;;;;4954337;29;20057;-71
2023/10/03 11:08:09;;;;;;;9.77;4.38;;;;;;;;;;4954598;28;20027;-74
2023/10/03 11:10:35;;;;;;;10.52;4.70;;;;;;;;;;4954206;29;20507;-71
2023/10/03 11:13:04;;;;;;;12.48;4.53;;;;;;;;;;4954722;29;20035;-71
2023/10/03 11:15:30;;;;;;;16.10;5.05;;;;;;;;;;4954246;29;20102;-73
2023/10/03 11:17:58;;;;;;;13.68;4.65;;;;;;;;;;4954429;28;20031;-72
2023/10/03 11:20:25;;;;;;;10.65;4.07;;;;;;;;;;4953806;29;20082;-73
2023/10/03 11:22:50;;;;;;;11.55;4.50;;;;;;;;;;4954634;28;20106;-73
2023/10/03 11:25:17;;;;;;;10.77;4.30;;;;;;;;;;4957439;28;20106;-73
2023/10/03 11:27:43;;;;;;;14.15;4.72;;;;;;;;;;4957907;28;20492;-70
2023/10/03 11:30:25;;;;;;;13.30;4.35;;;;;;;;;;4957620;29;20111;-74
2023/10/03 11:33:01;;;;;;;13.05;4.32;;;;;;;;;;4957830;29;20031;-73
2023/10/03 11:35:26;;;;;;;16.08;5.00;;;;;;;;;;4958147;29;20028;-73
2023/10/03 11:37:54;;;;;;;8.95;4.05;;;;;;;;;;4958313;28;20043;-73
2023/10/03 11:40:21;;;;;;;11.43;4.43;;;;;;;;;;4957488;29;20432;-72
2023/10/03 11:42:50;;;;;;;13.60;4.50;;;;;;;;;;4958055;29;20031;-72
2023/10/03 11:45:18;;;;;;;;;;;;;;;;;;4958501;29;20023;-73
2023/10/03 11:47:57;;;;;;;7.75;4.55;;;;;;;;;;4958118;28;19910;-73
2023/10/03 11:50:23;;;;;;;13.32;4.85;;;;;;;;;;4957708;29;20027;-73
2023/10/03 11:52:49;;;;;;;9.65;4.32;;;;;;;;;;4957517;29;20505;-72
2023/10/03 11:55:15;;;;;;;7.68;4.13;;;;;;;;;;4957416;28;20100;-73
2023/10/03 11:57:42;;;;;;;17.52;4.60;;;;;;;;;;4957558;29;20031;-73
2023/10/03 12:00:14;;;;;;;8.02;4.53;;;;;;;;;;4957122;29;20028;-73
2023/10/03 12:02:41;;;;;;;9.85;4.57;;;;;;;;;;4957109;29;20043;-75
2023/10/03 12:05:10;;;;;;;7.55;3.92;;;;;;;;;;4957439;29;20488;-73
2023/10/03 12:07:35;;;;;;;10.73;4.13;;;;;;;;;;4957660;28;20154;-73
2023/10/03 12:10:02;;;;;;;9.50;3.92;;;;;;;;;;4957166;28;20074;-74
2023/10/03 12:12:27;;;;;;;7.20;3.90;;;;;;;;;;4940527;29;20027;-73
2023/10/03 12:14:54;;;;;;;7.03;4.20;;;;;;;;;;4956893;29;20102;-73
2023/10/03 12:17:20;;;;;;;7.63;4.22;;;;;;;;;;4957185;28;20147;-73
2023/10/03 12:19:47;;;;;;;10.68;4.22;;;;;;;;;;4956892;29;20446;-73
2023/10/03 12:22:13;;;;;;;6.07;4.10;;;;;;;;;;4956881;29;20039;-73
2023/10/03 12:24:39;;;;;;;8.90;3.95;;;;;;;;;;4957377;28;20023;-73
2023/10/03 12:27:05;;;;;;;8.30;4.30;;;;;;;;;;4957249;29;20031;-74
2023/10/03 12:29:32;;;;;;;6.65;3.67;;;;;;;;;;4957665;29;20432;-73
2023/10/03 12:31:58;;;;;;;11.02;4.30;;;;;;;;;;4956557;29;20054;-74
2023/10/03 12:34:29;;;;;;;16.15;3.95;;;;;;;;;;4956759;29;20027;-72
2023/10/03 12:36:55;;;;;;;9.10;4.38;;;;;;;;;;4955870;28;20063;-73
2023/10/03 12:39:24;;;;;;;8.55;3.75;;;;;;;;;;4956790;28;20044;-72
2023/10/03 12:41:50;;;;;;;8.38;4.20;;;;;;;;;;4956847;29;20027;-73
2023/10/03 12:44:17;;;;;;;8.50;3.88;;;;;;;;;;4956431;29;20067;-72
2023/10/03 12:46:42;;;;;;;7.78;4.00;;;;;;;;;;4956777;29;20770;-72
2023/10/03 12:49:08;;;;;;;5.70;4.00;;;;;;;;;;4956429;29;20051;-73
2023/10/03 12:51:34;;;;;;;12.90;4.30;;;;;;;;;;4956244;29;20038;-72
2023/10/03 12:53:59;;;;;;;8.95;4.15;;;;;;;;;;4956393;29;20111;-73
2023/10/03 12:56:25;;;;;;;11.48;4.13;;;;;;;;;;4956463;28;20059;-73
2023/10/03 12:58:50;;;;;;;8.40;3.72;;;;;;;;;;4942855;28;20031;-73
2023/10/03 13:01:16;;;;;;;7.57;4.10;;;;;;;;;;4976711;28;20057;-74
2023/10/03 13:03:46;;;;;;;9.13;3.83;;;;;;;;;;4975675;28;20129;-73
2023/10/03 13:06:14;;;;;;;9.38;3.83;;;;;;;;;;4975740;28;20022;-74
2023/10/03 13:08:43;;;;;;;19.30;4.15;;;;;;;;;;4975722;28;20027;-73
2023/10/03 13:11:11;;;;;;;8.07;4.07;;;;;;;;;;4975417;28;20038;-72
2023/10/03 13:13:39;;;;;;;7.45;3.70;;;;;;;;;;4975383;28;20038;-73
2023/10/03 13:16:04;;;;;;;11.38;4.18;;;;;;;;;;4975364;28;20029;-74
2023/10/03 13:18:30;;;;;;;6.80;3.83;;;;;;;;;;4975704;28;20113;-74
2023/10/03 13:20:55;;;;;;;9.07;3.95;;;;;;;;;;4975519;28;20106;-73
2023/10/03 13:23:22;;;;;;;6.47;3.65;;;;;;;;;;4975314;28;20027;-72
2023/10/03 13:25:50;;;;;;;7.28;3.75;;;;;;;;;;4975497;28;20498;-73
2023/10/03 13:28:18;;;;;;;6.28;3.80;;;;;;;;;;4975524;28;20041;-73
2023/10/03 13:30:46;;;;;;;5.30;3.80;;;;;;;;;;4974952;28;20038;-72
2023/10/03 13:33:12;;;;;;;5.72;3.88;;;;;;;;;;4975028;28;20031;-73
2023/10/03 13:35:38;;;;;;;6.57;3.65;;;;;;;;;;4975028;28;20546;-73
2023/10/03 13:38:04;;;;;;;9.05;4.45;;;;;;;;;;4975085;28;20117;-73
2023/10/03 13:40:29;;;;;;;12.23;4.00;;;;;;;;;;4975535;28;20027;-77
2023/10/03 13:42:57;;;;;;;12.27;3.72;;;;;;;;;;4975472;28;20030;-74
2023/10/03 13:45:23;;;;;;;7.25;3.92;;;;;;;;;;4974918;28;20486;-73
2023/10/03 13:47:49;;;;;;;9.68;3.90;;;;;;;;;;4974808;28;20034;-73
2023/10/03 13:50:17;;;;;;;8.27;4.30;;;;;;;;;;4975658;28;20056;-72
2023/10/03 13:52:43;;;;;;;11.57;4.13;;;;;;;;;;4974602;28;20031;-73
2023/10/03 13:55:11;;;;;;;13.70;4.63;;;;;;;;;;4974821;28;20073;-72
2023/10/03 13:57:40;;;;;;;9.70;3.75;;;;;;;;;;4974904;28;20037;-73
2023/10/03 14:00:11;;;;;;;10.50;4.03;;;;;;;;;;4974606;28;20074;-73
2023/10/03 14:02:37;;;;;;;9.43;4.03;;;;;;;;;;4974149;28;20042;-72
2023/10/03 14:05:03;;;;;;;9.13;4.00;;;;;;;;;;4974287;28;20026;-72
2023/10/03 14:07:31;;;;;;;11.30;3.92;;;;;;;;;;4974752;28;20097;-71
2023/10/03 14:09:57;;;;;;;8.30;3.92;;;;;;;;;;4974200;28;20033;-72
2023/10/03 14:12:23;;;;;;;10.45;4.35;;;;;;;;;;4974180;28;20467;-73
2023/10/03 14:14:48;;;;;;;9.18;3.92;;;;;;;;;;4974078;28;20027;-71
2023/10/03 14:17:14;;;;;;;10.90;3.80;;;;;;;;;;4974269;28;20031;-73
2023/10/03 14:19:39;;;;;;;7.85;4.40;;;;;;;;;;4974451;28;20080;-72
2023/10/03 14:22:05;;;;;;;12.77;4.90;;;;;;;;;;4973941;28;20026;-72
2023/10/03 14:24:31;;;;;;;9.75;3.95;;;;;;;;;;4974175;28;20026;-72
2023/10/03 14:26:56;;;;;;;8.77;4.63;;;;;;;;;;4974117;28;20029;-71
2023/10/03 14:29:23;;;;;;;11.00;4.55;;;;;;;;;;4973945;28;20058;-73
2023/10/03 14:31:52;;;;;;;10.80;4.30;;;;;;;;;;4973730;28;20495;-71
2023/10/03 14:34:18;;;;;;;6.60;4.28;;;;;;;;;;4973831;28;20043;-75
2023/10/03 14:36:44;;;;;;;6.45;3.80;;;;;;;;;;4973962;28;20392;-73
2023/10/03 14:39:19;;;;;;;7.15;3.95;;;;;;;;;;4973596;28;20043;-71
2023/10/03 14:41:47;;;;;;;7.70;4.30;;;;;;;;;;4973758;28;20110;-71
2023/10/03 14:44:13;;;;;;;6.70;3.90;;;;;;;;;;4973857;28;20119;-73
2023/10/03 14:46:39;;;;;;;17.83;4.78;;;;;;;;;;4974096;28;20102;-72
2023/10/03 14:49:04;;;;;;;9.73;3.65;;;;;;;;;;4973859;28;20022;-72
2023/10/03 14:51:30;;;;;;;15.10;4.63;;;;;;;;;;4973865;28;20031;-73
2023/10/03 14:53:57;;;;;;;10.93;4.00;;;;;;;;;;4973533;28;20051;-72
2023/10/03 14:56:22;;;;;;;10.05;3.92;;;;;;;;;;4973714;28;20031;-71
2023/10/03 14:58:48;;;;;;;8.43;4.05;;;;;;;;;;4973199;28;20018;-73
2023/10/03 15:01:14;;;;;;;8.75;4.18;;;;;;;;;;4973482;28;20161;-73
2023/10/03 15:03:39;;;;;;;19.60;4.63;;;;;;;;;;4973556;28;20077;-70
2023/10/03 15:06:05;;;;;;;8.50;4.30;;;;;;;;;;4973617;28;20027;-70
2023/10/03 15:08:32;;;;;;;8.98;4.38;;;;;;;;;;4973726;28;20031;-71
2023/10/03 15:11:03;;;;;;;8.27;4.03;;;;;;;;;;4973387;28;20114;-72
2023/10/03 15:13:29;;;;;;;11.18;4.32;;;;;;;;;;4973537;28;20035;-72
2023/10/03 15:15:54;;;;;;;13.35;4.60;;;;;;;;;;4973516;28;20030;-72
2023/10/03 15:18:20;;;;;;;6.47;3.97;;;;;;;;;;4973724;28;20114;-74
2023/10/03 15:20:45;;;;;;;7.75;4.72;;;;;;;;;;4973615;28;20027;-72
2023/10/03 15:23:11;;;;;;;8.30;3.85;;;;;;;;;;4973313;28;20034;-72
2023/10/03 15:25:38;;;;;;;7.88;4.18;;;;;;;;;;4973640;28;20105;-72
2023/10/03 15:28:04;;;;;;;7.40;4.00;;;;;;;;;;4973418;28;20460;-71
2023/10/03 15:30:30;;;;;;;11.32;4.13;;;;;;;;;;4973596;28;20081;-72
2023/10/03 15:32:59;;;;;;;8.18;3.90;;;;;;;;;;4973055;28;20023;-73
2023/10/03 15:35:24;;;;;;;9.52;4.20;;;;;;;;;;4973464;28;20078;-73
2023/10/03 15:37:50;;;;;;;11.57;4.13;;;;;;;;;;4973536;28;20043;-72
2023/10/03 15:40:19;;;;;;;7.22;4.20;;;;;;;;;;4973280;28;20142;-72
2023/10/03 15:42:45;;;;;;;6.93;4.28;;;;;;;;;;4973466;28;20027;-72
2023/10/03 15:45:11;;;;;;;6.60;3.88;;;;;;;;;;4973216;28;20034;-72
2023/10/03 15:47:37;;;;;;;10.18;3.97;;;;;;;;;;4973289;28;20038;-71
2023/10/03 15:50:03;;;;;;;9.07;4.35;;;;;;;;;;4973142;28;20106;-73
2023/10/03 15:52:30;;;;;;;10.73;3.95;;;;;;;;;;4972726;28;20051;-72
2023/10/03 15:54:55;;;;;;;6.82;4.22;;;;;;;;;;4972824;28;20026;-73
2023/10/03 15:57:21;;;;;;;6.10;3.67;;;;;;;;;;4973611;28;20030;-73
2023/10/03 15:59:47;;;;;;;6.43;4.00;;;;;;;;;;4972936;28;20451;-72
2023/10/03 16:02:13;;;;;;;6.18;3.63;;;;;;;;;;4972843;28;20023;-73
2023/10/03 16:04:38;;;;;;;10.10;3.85;;;;;;;;;;4973002;28;20029;-72
2023/10/03 16:07:04;;;;;;;8.05;3.50;;;;;;;;;;4973089;28;20026;-73
2023/10/03 16:09:30;;;;;;;7.57;4.05;;;;;;;;;;4990025;28;20513;-71
2023/10/03 16:11:58;;;;;;;9.88;4.18;;;;;;;;;;4994752;28;20022;-71
2023/10/03 16:14:23;;;;;;;11.88;4.18;;;;;;;;;;4996223;28;20073;-71
2023/10/03 16:16:50;;;;;;;7.85;4.18;;;;;;;;;;4995552;28;20030;-73
2023/10/03 16:19:17;;;;;;;6.75;3.80;;;;;;;;;;4996153;28;20456;-73
2023/10/03 16:21:43;;;;;;;9.23;4.32;;;;;;;;;;4995579;28;20033;-74
2023/10/03 16:24:10;;;;;;;11.93;4.20;;;;;;;;;;4995624;28;20102;-73
2023/10/03 16:26:36;;;;;;;12.55;3.78;;;;;;;;;;4983917;28;20560;-73
2023/10/03 16:29:02;;;;;;;11.43;4.38;;;;;;;;;;4976562;28;20114;-73
2023/10/03 16:31:29;;;;;;;13.00;3.88;;;;;;;;;;4984487;28;20483;-74
2023/10/03 16:33:56;;;;;;;6.65;3.80;;;;;;;;;;4992531;28;20113;-71
2023/10/03 16:36:26;;;;;;;10.30;3.83;;;;;;;;;;4995505;28;20471;-72
2023/10/03 16:38:52;;;;;;;8.23;3.83;;;;;;;;;;4994925;28;20507;-72
2023/10/03 16:41:18;;;;;;;6.32;3.80;;;;;;;;;;4995438;28;20032;-72
2023/10/03 16:43:44;;;;;;;10.85;4.25;;;;;;;;;;4995774;28;20029;-73
2023/10/03 16:46:10;;;;;;;7.82;3.88;;;;;;;;;;4995466;28;20497;-72
2023/10/03 16:48:35;;;;;;;11.70;4.40;;;;;;;;;;4995056;28;20018;-72
2023/10/03 16:51:02;;;;;;;5.97;4.47;;;;;;;;;;4995409;28;20139;-72
2023/10/03 16:53:27;;;;;;;9.88;4.15;;;;;;;;;;4994988;28;20121;-70
2023/10/03 16:55:53;;;;;;;10.65;4.28;;;;;;;;;;4995304;28;20106;-72
2023/10/03 16:58:19;;;;;;;7.13;3.50;;;;;;;;;;4995318;28;20065;-73
2023/10/03 17:00:44;;;;;;;10.73;4.32;;;;;;;;;;4995481;28;20022;-74
2023/10/03 17:03:10;;;;;;;8.52;3.55;;;;;;;;;;4995003;28;20027;-73
2023/10/03 17:05:35;;;;;;;13.48;4.05;;;;;;;;;;4994933;28;20630;-73
2023/10/03 17:08:01;;;;;;;7.93;3.60;;;;;;;;;;4994283;28;20081;-73
2023/10/03 17:10:27;;;;;;;11.63;4.68;;;;;;;;;;4995185;28;20026;-72
2023/10/03 17:12:53;;;;;;;13.98;4.28;;;;;;;;;;4994616;28;20033;-72
2023/10/03 17:15:19;;;;;;;9.88;3.85;;;;;;;;;;4994727;28;20081;-71
2023/10/03 17:17:49;;;;;;;14.70;3.95;;;;;;;;;;4994609;28;20427;-72
2023/10/03 17:20:16;;;;;;;9.52;3.78;;;;;;;;;;4995176;28;20049;-71
2023/10/03 17:22:43;;;;;;;9.65;4.40;;;;;;;;;;4994014;28;20379;-71
2023/10/03 17:25:10;;;;;;;12.30;3.80;;;;;;;;;;4994641;28;20027;-71
2023/10/03 17:27:37;;;;;;;9.80;4.00;;;;;;;;;;4994786;28;20418;-71
2023/10/03 17:30:08;;;;;;;8.30;4.10;;;;;;;;;;4994117;28;20027;-70
2023/10/03 17:32:34;;;;;;;13.90;4.15;;;;;;;;;;4994201;28;20101;-71
2023/10/03 17:34:59;;;;;;;11.80;4.05;;;;;;;;;;4994165;28;20121;-71
2023/10/03 17:37:25;;;;;;;15.85;3.83;;;;;;;;;;4994066;28;20061;-71
2023/10/03 17:39:52;;;;;;;9.30;4.07;;;;;;;;;;4994111;28;20038;-72
2023/10/03 17:42:19;;;;;;;14.77;4.28;;;;;;;;;;4993921;28;20026;-72
2023/10/03 17:44:46;;;;;;;11.98;4.22;;;;;;;;;;4976633;28;20521;-73
2023/10/03 17:47:12;;;;;;;11.52;4.00;;;;;;;;;;4994513;28;20038;-72
2023/10/03 17:49:38;;;;;;;12.43;4.10;;;;;;;;;;4994254;28;20122;-72
2023/10/03 17:52:06;;;;;;;11.35;3.72;;;;;;;;;;4993817;28;20042;-72
2023/10/03 17:54:32;;;;;;;13.45;3.95;;;;;;;;;;4994063;28;20038;-73
2023/10/03 17:56:57;;;;;;;11.68;4.45;;;;;;;;;;4994196;28;20077;-74
2023/10/03 17:59:23;;;;;;;9.90;4.15;;;;;;;;;;4993803;28;20019;-73
2023/10/03 18:01:48;;;;;;;14.13;4.82;;;;;;;;;;4993621;28;20026;-74
2023/10/03 18:04:14;;;;;;;12.98;3.92;;;;;;;;;;4993805;28;20499;-76
2023/10/03 18:06:39;;;;;;;8.23;3.67;;;;;;;;;;4994004;28;20097;-74
2023/10/03 18:09:06;;;;;;;9.48;4.38;;;;;;;;;;4993559;28;20066;-73
2023/10/03 18:11:33;;;;;;;13.32;4.28;;;;;;;;;;4993618;28;20030;-73
2023/10/03 18:14:00;;;;;;;8.82;4.10;;;;;;;;;;4993676;28;20080;-72
2023/10/03 18:16:26;;;;;;;7.80;4.30;;;;;;;;;;4993653;28;20533;-72
2023/10/03 18:18:51;;;;;;;9.02;4.18;;;;;;;;;;4976493;28;20026;-74
2023/10/03 18:21:17;;;;;;;7.50;3.80;;;;;;;;;;4993956;28;20029;-73
2023/10/03 18:23:45;;;;;;;6.90;3.90;;;;;;;;;;4993609;28;20522;-73
2023/10/03 18:26:15;;;;;;;8.15;3.42;;;;;;;;;;4993665;28;20018;-73
2023/10/03 18:28:41;;;;;;;9.77;3.70;;;;;;;;;;4993578;28;20081;-73
2023/10/03 18:31:14;;;;;;;7.85;3.63;;;;;;;;;;4993681;28;20031;-73
2023/10/03 18:33:40;;;;;;;7.85;4.22;;;;;;;;;;4992975;28;20037;-73
2023/10/03 18:36:07;;;;;;;9.45;3.97;;;;;;;;;;4993304;28;20483;-72
2023/10/03 18:38:33;;;;;;;7.35;3.92;;;;;;;;;;4993059;28;20054;-73
2023/10/03 18:40:58;;;;;;;12.90;4.10;;;;;;;;;;4993224;28;20077;-73
2023/10/03 18:43:24;;;;;;;8.05;4.13;;;;;;;;;;4993657;28;20018;-73
2023/10/03 18:45:51;;;;;;;5.82;3.40;;;;;;;;;;4993647;28;20026;-72
2023/10/03 18:48:17;;;;;;;13.80;3.85;;;;;;;;;;4993146;28;20026;-74
2023/10/03 18:50:42;;;;;;;10.27;4.30;;;;;;;;;;4993726;28;20081;-74
2023/10/03 18:53:08;;;;;;;6.97;3.75;;;;;;;;;;4993299;28;20066;-73
2023/10/03 18:55:37;;;;;;;7.72;4.20;;;;;;;;;;4993047;28;20041;-73
2023/10/03 18:58:03;;;;;;;7.35;3.55;;;;;;;;;;4993130;28;20110;-72
2023/10/03 19:00:28;;;;;;;6.28;3.38;;;;;;;;;;4992649;28;20105;-72
2023/10/03 19:02:54;;;;;;;7.70;3.72;;;;;;;;;;4991799;28;20390;-73
2023/10/03 19:05:20;;;;;;;8.75;3.83;;;;;;;;;;4991885;28;20518;-72
2023/10/03 19:07:46;;;;;;;8.05;3.70;;;;;;;;;;4992030;28;20054;-73
2023/10/03 19:10:12;;;;;;;7.18;3.60;;;;;;;;;;4992017;28;20069;-73
2023/10/03 19:12:38;;;;;;;7.78;3.80;;;;;;;;;;4991988;28;20038;-73
2023/10/03 19:15:04;;;;;;;9.73;3.60;;;;;;;;;;4992578;28;20022;-72
2023/10/03 19:17:30;;;;;;;14.00;3.53;;;;;;;;;;4992787;28;20030;-74
2023/10/03 19:19:57;;;;;;;10.65;3.90;;;;;;;;;;4992879;28;20030;-72
2023/10/03 19:22:24;;;;;;;12.13;3.80;;;;;;;;;;4992727;28;20022;-73
2023/10/03 19:24:51;;;;;;;8.07;3.80;;;;;;;;;;4992901;28;20481;-74
2023/10/03 19:27:20;;;;;;;7.22;3.67;;;;;;;;;;4993149;28;20030;-72
2023/10/03 19:29:47;;;;;;;7.28;3.35;;;;;;;;;;4992920;28;20485;-72
2023/10/03 19:32:13;;;;;;;5.68;3.50;;;;;;;;;;4975333;28;20065;-71
2023/10/03 19:34:38;;;;;;;8.00;3.63;;;;;;;;;;4993240;28;20057;-72
2023/10/03 19:37:04;;;;;;;7.93;3.63;;;;;;;;;;4992953;28;20030;-72
2023/10/03 19:39:30;;;;;;;6.35;3.97;;;;;;;;;;4975403;28;20520;-72
2023/10/03 19:41:58;;;;;;;5.13;3.28;;;;;;;;;;4992950;28;20065;-74
2023/10/03 19:44:24;;;;;;;7.57;3.63;;;;;;;;;;4992966;28;20037;-71
2023/10/03 19:46:57;;;;;;;7.88;3.30;;;;;;;;;;4978995;28;20498;-73
2023/10/03 19:49:27;;;;;;;25.42;5.15;;;;;;;;;;4996789;28;20101;-72
2023/10/03 19:51:54;;;;;;;15.82;4.47;;;;;;;;;;4996848;28;20387;-67
2023/10/03 19:54:19;;;;;;;26.60;5.43;;;;;;;;;;4996578;28;20026;-70
2023/10/03 19:56:45;;;;;;;18.10;4.65;;;;;;;;;;4996753;28;20387;-67
2023/10/03 19:59:11;;;;;;;11.95;4.07;;;;;;;;;;4996651;28;20037;-68
2023/10/03 20:01:37;;;;;;;11.57;3.85;;;;;;;;;;4996765;28;20045;-67
2023/10/03 20:04:02;;;;;;;14.13;3.88;;;;;;;;;;4996411;28;20467;-67
2023/10/03 20:06:28;;;;;;;12.73;4.40;;;;;;;;;;4996340;28;20353;-67
2023/10/03 20:08:54;;;;;;;10.57;4.20;;;;;;;;;;4996055;28;20022;-67
2023/10/03 20:11:19;;;;;;;12.85;4.00;;;;;;;;;;4996149;28;20034;-67
2023/10/03 20:13:47;;;;;;;98.22;8.48;;;;;;;;;;4996015;28;20463;-67
2023/10/03 20:16:13;;;;;;;18.98;4.85;;;;;;;;;;4996227;28;20037;-67
2023/10/03 20:18:40;;;;;;;17.40;4.82;;;;;;;;;;4996026;28;20073;-67
2023/10/03 20:21:07;;;;;;;17.70;4.22;;;;;;;;;;4996093;28;20073;-69
2023/10/03 20:23:34;;;;;;;7.78;3.85;;;;;;;;;;4995713;28;20378;-68